Time;durP1;ratioP1;P1;durP2;ratioP2;P2;SDS_P1;SDS_P2;PMS_P1;PMS_P2;Temp;Humidity;BMP_temperature;BMP_pressure;BME280_temperature;BME280_humidity;BME280_pressure;Samples;Min_cycle;Max_cycle;Signal;HPM_P1;HPM_P2
2023/07/25 00:00:29;;;;;;;11.13;5.05;;;27.60;45.20;;;;;;5066782;28;20484;-80
2023/07/25 00:02:55;;;;;;;10.80;5.18;;;27.50;45.30;;;;;;5075032;28;20480;-80
2023/07/25 00:05:21;;;;;;;11.80;5.32;;;27.50;45.30;;;;;;5065481;28;20116;-80
2023/07/25 00:07:46;;;;;;;11.73;5.03;;;27.60;45.40;;;;;;5070872;28;20115;-80
2023/07/25 00:10:13;;;;;;;10.20;5.50;;;27.60;45.40;;;;;;5054561;28;20068;-80
2023/07/25 00:12:39;;;;;;;8.40;5.07;;;27.60;45.30;;;;;;5069691;28;20037;-80
2023/07/25 00:15:05;;;;;;;7.95;5.05;;;27.70;45.30;;;;;;5045526;28;20041;-80
2023/07/25 00:17:31;;;;;;;12.00;4.97;;;27.60;45.40;;;;;;5072206;28;20032;-80
2023/07/25 00:19:57;;;;;;;9.05;5.30;;;27.70;45.40;;;;;;5069394;28;20979;-80
2023/07/25 00:22:23;;;;;;;10.90;5.22;;;27.70;45.40;;;;;;5074502;28;20123;-80
2023/07/25 00:24:50;;;;;;;7.95;4.90;;;27.70;45.40;;;;;;5046756;28;20031;-80
2023/07/25 00:27:16;;;;;;;9.32;5.70;;;27.60;45.40;;;;;;5072503;28;20064;-80
2023/07/25 00:29:42;;;;;;;8.30;5.10;;;27.60;45.50;;;;;;5072759;28;20056;-80
2023/07/25 00:32:08;;;;;;;10.45;5.28;;;27.80;45.50;;;;;;5070132;28;20098;-79
2023/07/25 00:34:34;;;;;;;12.52;5.05;;;27.70;45.50;;;;;;5070593;28;20484;-80
2023/07/25 00:37:00;;;;;;;9.00;5.70;;;27.70;45.50;;;;;;5069278;28;20029;-80
2023/07/25 00:39:26;;;;;;;8.80;4.72;;;27.70;45.60;;;;;;5054873;28;20049;-80
2023/07/25 00:41:52;;;;;;;8.57;4.90;;;27.70;45.60;;;;;;5029990;28;20081;-80
2023/07/25 00:44:18;;;;;;;11.18;5.60;;;27.80;45.60;;;;;;5029276;28;20065;-80
2023/07/25 00:46:46;;;;;;;9.45;5.03;;;27.70;45.60;;;;;;5029462;28;20057;-80
2023/07/25 00:49:12;;;;;;;10.05;5.65;;;27.80;45.40;;;;;;5030251;28;20049;-80
2023/07/25 00:51:38;;;;;;;8.20;5.07;;;27.60;45.40;;;;;;5030409;28;20071;-80
2023/07/25 00:54:05;;;;;;;7.15;5.32;;;27.70;45.40;;;;;;5009879;28;20506;-80
2023/07/25 00:56:31;;;;;;;13.38;5.78;;;27.70;45.50;;;;;;4976792;28;20050;-80
2023/07/25 00:58:57;;;;;;;10.02;5.10;;;27.70;45.70;;;;;;4993983;28;20073;-80
2023/07/25 01:01:24;;;;;;;8.43;5.07;;;27.60;45.70;;;;;;5009813;28;20068;-80
2023/07/25 01:03:53;;;;;;;11.90;5.32;;;27.60;45.80;;;;;;4993850;28;20057;-80
2023/07/25 01:06:19;;;;;;;7.63;5.10;;;27.50;45.80;;;;;;4993434;28;20053;-80
2023/07/25 01:08:53;;;;;;;9.38;4.95;;;27.50;45.90;;;;;;5008453;28;20050;-80
2023/07/25 01:11:20;;;;;;;11.82;5.90;;;27.50;45.90;;;;;;4994038;28;20045;-80
2023/07/25 01:13:47;;;;;;;7.07;4.72;;;27.60;45.70;;;;;;5044737;28;20512;-80
2023/07/25 01:16:16;;;;;;;8.73;5.35;;;27.60;45.80;;;;;;5050512;28;20090;-80
2023/07/25 01:18:43;;;;;;;10.68;5.40;;;27.40;45.80;;;;;;5070307;28;20110;-80
2023/07/25 01:21:11;;;;;;;12.40;6.03;;;27.60;45.90;;;;;;5068672;28;20090;-80
2023/07/25 01:23:37;;;;;;;12.35;5.25;;;27.60;45.90;;;;;;5055359;28;20397;-80
2023/07/25 01:26:03;;;;;;;10.10;4.90;;;27.70;45.90;;;;;;5052478;28;20049;-80
2023/07/25 01:28:30;;;;;;;10.43;5.72;;;27.60;45.90;;;;;;5064962;28;20028;-80
2023/07/25 01:30:57;;;;;;;8.52;5.00;;;27.50;46.00;;;;;;5054238;28;20417;-80
2023/07/25 01:33:23;;;;;;;11.23;5.35;;;27.60;46.00;;;;;;5063924;28;20030;-80
2023/07/25 01:35:50;;;;;;;9.38;5.50;;;27.60;46.00;;;;;;5059524;28;20025;-80
2023/07/25 01:38:16;;;;;;;10.40;5.53;;;27.60;46.00;;;;;;5037158;28;20035;-80
2023/07/25 01:40:42;;;;;;;10.07;5.47;;;27.60;46.10;;;;;;5069970;28;20032;-80
2023/07/25 01:43:08;;;;;;;9.23;4.90;;;27.60;46.10;;;;;;5061776;28;20067;-80
2023/07/25 01:45:35;;;;;;;13.00;5.63;;;27.60;46.10;;;;;;5045707;28;20127;-79
2023/07/25 01:48:01;;;;;;;8.38;5.32;;;27.60;46.10;;;;;;5070208;28;20054;-80
2023/07/25 01:50:28;;;;;;;10.20;5.78;;;27.70;45.90;;;;;;5064643;28;20048;-80
2023/07/25 01:52:54;;;;;;;10.10;5.00;;;27.70;45.90;;;;;;5069592;28;20056;-80
2023/07/25 01:55:20;;;;;;;7.78;4.72;;;27.60;46.00;;;;;;5054275;28;20040;-80
2023/07/25 01:57:46;;;;;;;13.07;5.47;;;27.50;46.10;;;;;;5071223;28;20036;-80
2023/07/25 02:00:13;;;;;;;9.40;5.15;;;27.70;46.10;;;;;;5068571;28;20119;-80
2023/07/25 02:02:39;;;;;;;9.23;5.13;;;27.50;46.10;;;;;;5071130;28;20060;-80
2023/07/25 02:05:05;;;;;;;10.90;5.65;;;27.50;46.20;;;;;;5064793;28;20458;-80
2023/07/25 02:07:31;;;;;;;7.82;5.10;;;27.50;46.30;;;;;;5070873;28;20036;-80
2023/07/25 02:09:57;;;;;;;8.63;5.28;;;27.50;46.30;;;;;;5071071;28;20036;-80
2023/07/25 02:12:25;;;;;;;9.45;5.45;;;27.50;46.10;;;;;;5051406;28;20036;-80
2023/07/25 02:14:51;;;;;;;8.88;5.82;;;27.50;46.00;;;;;;5070690;28;20036;-80
2023/07/25 02:17:20;;;;;;;11.95;6.05;;;27.50;46.20;;;;;;5041259;28;20068;-80
2023/07/25 02:19:46;;;;;;;9.00;5.82;;;27.50;46.30;;;;;;5086703;28;20040;-80
2023/07/25 02:22:13;;;;;;;9.05;5.10;;;27.60;46.30;;;;;;5054980;28;20033;-80
2023/07/25 02:24:39;;;;;;;11.93;5.05;;;27.70;46.40;;;;;;5063550;28;20040;-80
2023/07/25 02:27:05;;;;;;;10.90;5.55;;;27.60;46.40;;;;;;5068075;28;20021;-80
2023/07/25 02:29:31;;;;;;;11.63;5.50;;;27.60;46.40;;;;;;5070315;28;20456;-80
2023/07/25 02:31:57;;;;;;;9.73;5.20;;;27.80;46.40;;;;;;5051727;28;20061;-80
2023/07/25 02:34:23;;;;;;;9.10;5.20;;;27.70;46.40;;;;;;5071347;28;20488;-80
2023/07/25 02:36:49;;;;;;;8.52;5.78;;;27.70;46.40;;;;;;5069058;28;20083;-80
2023/07/25 02:39:15;;;;;;;11.40;5.47;;;27.70;46.40;;;;;;5062841;28;20044;-80
2023/07/25 02:41:41;;;;;;;10.13;6.25;;;27.60;46.40;;;;;;5071711;28;20045;-80
2023/07/25 02:44:07;;;;;;;13.13;5.65;;;27.70;46.40;;;;;;5071534;28;20111;-80
2023/07/25 02:46:33;;;;;;;8.98;5.70;;;27.70;46.40;;;;;;5052806;28;20036;-80
2023/07/25 02:48:59;;;;;;;15.20;6.15;;;27.50;46.40;;;;;;5070941;28;20036;-80
2023/07/25 02:51:27;;;;;;;11.45;6.13;;;27.60;46.40;;;;;;5065118;28;20029;-80
2023/07/25 02:53:53;;;;;;;8.60;5.20;;;27.60;46.40;;;;;;5051812;28;20037;-80
2023/07/25 02:56:20;;;;;;;12.18;5.95;;;27.60;46.40;;;;;;5062888;28;21873;-80
2023/07/25 02:58:46;;;;;;;7.30;4.95;;;27.60;46.50;;;;;;5071095;28;20032;-80
2023/07/25 03:01:12;;;;;;;12.75;6.28;;;27.40;46.50;;;;;;5068712;28;20119;-80
2023/07/25 03:03:38;;;;;;;12.82;5.68;;;27.60;46.60;;;;;;5068746;28;20505;-80
2023/07/25 03:06:04;;;;;;;11.95;5.47;;;27.60;46.60;;;;;;5048613;28;20032;-79
2023/07/25 03:08:30;;;;;;;15.68;5.72;;;27.50;46.70;;;;;;5033936;28;20453;-80
2023/07/25 03:10:56;;;;;;;14.45;5.95;;;27.50;46.70;;;;;;5062934;28;20032;-80
2023/07/25 03:13:22;;;;;;;9.48;5.22;;;27.50;46.40;;;;;;5058861;28;20033;-80
2023/07/25 03:15:48;;;;;;;13.15;6.13;;;27.50;46.40;;;;;;5059019;28;20368;-80
2023/07/25 03:18:14;;;;;;;16.30;5.45;;;27.50;46.50;;;;;;5050513;28;20081;-79
2023/07/25 03:20:41;;;;;;;12.05;6.15;;;27.50;46.60;;;;;;5068287;28;20142;-80
2023/07/25 03:23:07;;;;;;;14.55;6.22;;;27.50;46.60;;;;;;5070895;28;20032;-80
2023/07/25 03:25:33;;;;;;;8.57;5.55;;;27.60;46.80;;;;;;5063508;28;20052;-80
2023/07/25 03:27:59;;;;;;;11.25;5.70;;;27.60;46.80;;;;;;5069464;28;20115;-80
2023/07/25 03:30:25;;;;;;;9.50;5.90;;;27.50;46.90;;;;;;5056752;28;20033;-80
2023/07/25 03:32:51;;;;;;;10.13;5.45;;;27.60;46.80;;;;;;5068500;28;20051;-80
2023/07/25 03:35:17;;;;;;;8.93;5.65;;;27.60;46.60;;;;;;5048709;28;20034;-80
2023/07/25 03:37:43;;;;;;;12.38;5.85;;;27.60;46.90;;;;;;5070889;28;20031;-80
2023/07/25 03:40:09;;;;;;;10.00;6.18;;;27.60;46.70;;;;;;5053895;28;20029;-80
2023/07/25 03:42:35;;;;;;;13.85;6.25;;;27.60;46.90;;;;;;5048148;28;20029;-80
2023/07/25 03:45:01;;;;;;;11.18;5.93;;;27.70;46.60;;;;;;5047003;28;20072;-80
2023/07/25 03:47:27;;;;;;;9.60;5.72;;;27.60;46.60;;;;;;5031425;28;20059;-80
2023/07/25 03:49:53;;;;;;;15.55;6.53;;;27.70;46.60;;;;;;5031511;28;20048;-80
2023/07/25 03:52:19;;;;;;;11.55;5.78;;;27.70;46.90;;;;;;5025709;28;20041;-80
2023/07/25 03:54:45;;;;;;;8.32;5.38;;;27.50;46.90;;;;;;5028165;28;20120;-80
2023/07/25 03:57:11;;;;;;;9.07;4.45;;;27.50;47.00;;;;;;5027253;28;20089;-79
2023/07/25 03:59:37;;;;;;;10.40;5.75;;;27.40;47.00;;;;;;5009128;28;20397;-79
2023/07/25 04:02:03;;;;;;;8.63;5.53;;;27.50;47.00;;;;;;5011961;28;20042;-80
2023/07/25 04:04:29;;;;;;;14.48;5.45;;;27.50;47.00;;;;;;5012068;28;20046;-79
2023/07/25 04:06:55;;;;;;;10.13;4.65;;;27.40;47.10;;;;;;5025100;28;20034;-80
2023/07/25 04:09:21;;;;;;;8.02;5.20;;;27.50;47.10;;;;;;5021839;28;20050;-80
2023/07/25 04:11:47;;;;;;;8.80;5.30;;;27.50;47.10;;;;;;5011775;28;20155;-79
2023/07/25 04:14:13;;;;;;;6.72;3.97;;;27.50;47.00;;;;;;4986175;28;20085;-79
2023/07/25 04:16:39;;;;;;;10.13;4.47;;;27.60;47.10;;;;;;4995083;28;20489;-79
2023/07/25 04:19:05;;;;;;;9.93;5.55;;;27.50;47.00;;;;;;5011939;28;20050;-80
2023/07/25 04:21:31;;;;;;;8.93;5.53;;;27.50;47.10;;;;;;5016325;28;20045;-80
2023/07/25 04:23:58;;;;;;;12.63;5.93;;;27.70;47.00;;;;;;5043203;28;20440;-80
2023/07/25 04:26:24;;;;;;;10.32;5.05;;;27.60;47.00;;;;;;5053064;28;20408;-80
2023/07/25 04:28:50;;;;;;;13.05;6.13;;;27.60;47.00;;;;;;5052696;28;20040;-80
2023/07/25 04:31:16;;;;;;;8.02;4.00;;;27.60;47.00;;;;;;5050343;28;20115;-80
2023/07/25 04:33:42;;;;;;;13.23;5.80;;;27.60;47.10;;;;;;5053659;28;20037;-80
2023/07/25 04:36:08;;;;;;;11.32;5.90;;;27.60;47.10;;;;;;5053583;28;20082;-80
2023/07/25 04:38:34;;;;;;;13.30;6.32;;;27.60;47.10;;;;;;5052298;28;20036;-79
2023/07/25 04:41:00;;;;;;;10.63;6.05;;;27.70;47.00;;;;;;5031169;28;20207;-80
2023/07/25 04:43:26;;;;;;;15.27;5.53;;;27.70;47.10;;;;;;5033547;28;20034;-79
2023/07/25 04:45:52;;;;;;;11.02;5.82;;;27.60;47.10;;;;;;5046623;28;20052;-80
2023/07/25 04:48:18;;;;;;;10.95;6.10;;;27.60;47.10;;;;;;5052223;28;20055;-79
2023/07/25 04:50:44;;;;;;;8.68;4.40;;;27.60;47.20;;;;;;5065167;28;20041;-80
2023/07/25 04:53:10;;;;;;;8.80;5.72;;;27.70;47.30;;;;;;5072150;28;20032;-79
2023/07/25 04:55:36;;;;;;;7.47;4.40;;;27.70;47.30;;;;;;5052859;28;20029;-80
2023/07/25 04:58:02;;;;;;;11.23;5.65;;;27.50;47.30;;;;;;5068280;28;20025;-80
2023/07/25 05:00:30;;;;;;;12.70;5.30;;;27.40;47.30;;;;;;5051822;28;20487;-80
2023/07/25 05:02:56;;;;;;;9.50;5.47;;;27.40;47.40;;;;;;5035597;28;20092;-80
2023/07/25 05:05:22;;;;;;;9.70;5.05;;;27.60;47.40;;;;;;5051628;28;20048;-80
2023/07/25 05:07:48;;;;;;;7.25;4.43;;;27.60;47.40;;;;;;5053811;28;20036;-80
2023/07/25 05:10:14;;;;;;;12.00;4.90;;;27.50;47.40;;;;;;5053058;28;20732;-80
2023/07/25 05:12:40;;;;;;;7.55;4.10;;;27.70;47.30;;;;;;5052701;28;20047;-80
2023/07/25 05:15:07;;;;;;;7.18;4.57;;;27.60;47.30;;;;;;5053215;28;20469;-80
2023/07/25 05:17:33;;;;;;;8.15;4.18;;;27.60;47.30;;;;;;5052869;28;20556;-80
2023/07/25 05:19:59;;;;;;;9.73;5.45;;;27.60;47.30;;;;;;5051897;28;20179;-80
2023/07/25 05:22:25;;;;;;;13.52;5.97;;;27.70;47.30;;;;;;5052760;28;20067;-80
2023/07/25 05:24:51;;;;;;;12.77;6.50;;;27.70;47.30;;;;;;5052362;28;20400;-80
2023/07/25 05:27:17;;;;;;;9.80;6.55;;;27.70;47.30;;;;;;5051554;28;20059;-80
2023/07/25 05:29:43;;;;;;;19.58;5.85;;;27.70;47.30;;;;;;5053085;28;20083;-80
2023/07/25 05:32:09;;;;;;;11.77;6.15;;;27.70;47.30;;;;;;5051441;28;20440;-80
2023/07/25 05:34:35;;;;;;;8.32;5.25;;;27.70;47.30;;;;;;5052774;28;20040;-80
2023/07/25 05:37:00;;;;;;;10.55;5.47;;;27.60;47.30;;;;;;5052672;28;20548;-80
2023/07/25 05:39:27;;;;;;;10.95;6.07;;;27.70;47.40;;;;;;5051377;28;20708;-80
2023/07/25 05:41:53;;;;;;;10.80;6.00;;;27.60;47.40;;;;;;5053116;28;20064;-80
2023/07/25 05:44:19;;;;;;;11.60;6.05;;;27.70;47.50;;;;;;5052224;28;20053;-79
2023/07/25 05:46:44;;;;;;;7.93;5.45;;;27.60;47.50;;;;;;5052397;28;20037;-79
2023/07/25 05:49:10;;;;;;;10.88;5.60;;;27.50;47.50;;;;;;5050087;28;20083;-80
2023/07/25 05:51:36;;;;;;;10.20;6.43;;;27.50;47.50;;;;;;5051011;28;20508;-80
2023/07/25 05:54:02;;;;;;;16.52;6.63;;;27.50;47.60;;;;;;5052091;28;20060;-80
2023/07/25 05:56:28;;;;;;;13.35;5.85;;;27.60;47.60;;;;;;5052335;28;20033;-79
2023/07/25 05:58:54;;;;;;;13.55;5.72;;;27.60;47.70;;;;;;5051223;28;20087;-80
2023/07/25 06:01:20;;;;;;;13.95;4.50;;;27.60;47.70;;;;;;5050733;28;20425;-80
2023/07/25 06:03:46;;;;;;;8.75;5.63;;;27.60;47.60;;;;;;5052187;28;20064;-80
2023/07/25 06:06:12;;;;;;;10.30;5.10;;;27.70;47.60;;;;;;5056085;28;20056;-79
2023/07/25 06:08:38;;;;;;;6.22;4.00;;;27.70;47.50;;;;;;5055519;28;20048;-79
2023/07/25 06:11:04;;;;;;;6.65;3.53;;;27.60;47.50;;;;;;5038164;28;20110;-79
2023/07/25 06:13:33;;;;;;;7.70;4.10;;;27.50;47.50;;;;;;5042008;28;20076;-79
2023/07/25 06:15:59;;;;;;;14.18;5.45;;;27.70;47.50;;;;;;5054863;28;20036;-79
2023/07/25 06:18:25;;;;;;;9.75;5.32;;;27.70;47.50;;;;;;5052137;28;20025;-81
2023/07/25 06:20:51;;;;;;;15.20;6.57;;;27.70;47.50;;;;;;5047074;28;20487;-80
2023/07/25 06:23:17;;;;;;;4.78;3.13;;;27.70;50.80;;;;;;5060663;28;20465;-78
2023/07/25 06:25:42;;;;;;;6.05;3.35;;;28.10;51.10;;;;;;5055092;28;20083;-83
2023/07/25 06:28:11;;;;;;;9.13;4.50;;;28.20;50.40;;;;;;5055478;28;20074;-79
2023/07/25 06:30:37;;;;;;;8.85;4.60;;;28.30;50.50;;;;;;5060059;28;20025;-80
2023/07/25 06:33:04;;;;;;;10.48;4.97;;;28.40;50.10;;;;;;5065969;28;20037;-79
2023/07/25 06:35:30;;;;;;;13.15;6.85;;;28.50;50.90;;;;;;5054540;28;20434;-82
2023/07/25 06:37:56;;;;;;;13.80;7.20;;;28.50;51.20;;;;;;5039217;28;20159;-81
2023/07/25 06:40:22;;;;;;;12.13;8.48;;;28.50;51.30;;;;;;5060351;28;20082;-80
2023/07/25 06:42:48;;;;;;;13.15;6.80;;;28.50;52.30;;;;;;5051828;28;20040;-79
2023/07/25 06:45:16;;;;;;;19.73;12.20;;;28.60;53.40;;;;;;5049885;28;20096;-81
2023/07/25 06:47:42;;;;;;;27.25;15.23;;;28.70;52.60;;;;;;5050479;28;20041;-82
2023/07/25 06:50:08;;;;;;;14.68;9.48;;;28.70;54.00;;;;;;5051148;28;20033;-83
2023/07/25 06:52:34;;;;;;;19.80;13.77;;;28.70;52.50;;;;;;5050982;28;20484;-78
2023/07/25 06:55:00;;;;;;;17.58;9.10;;;28.80;52.30;;;;;;5050988;28;20083;-81
2023/07/25 06:57:28;;;;;;;15.40;8.20;;;28.70;55.50;;;;;;5050383;28;20029;-82
2023/07/25 06:59:54;;;;;;;14.23;7.85;;;28.70;50.80;;;;;;5046236;28;21047;-78
2023/07/25 07:02:20;;;;;;;12.27;7.00;;;28.70;49.70;;;;;;5061700;28;20512;-82
2023/07/25 07:04:46;;;;;;;11.88;7.45;;;28.70;49.70;;;;;;5052141;28;20060;-83
2023/07/25 07:07:12;;;;;;;12.55;7.47;;;28.70;49.70;;;;;;5048530;28;20389;-83
2023/07/25 07:09:38;;;;;;;11.75;6.80;;;28.50;49.90;;;;;;5049694;28;20532;-79
2023/07/25 07:12:04;;;;;;;9.27;4.95;;;28.60;52.30;;;;;;5070628;28;20114;-83
2023/07/25 07:14:30;;;;;;;10.32;5.70;;;28.60;50.10;;;;;;5080533;28;20043;-83
2023/07/25 07:16:56;;;;;;;8.77;5.15;;;28.60;50.60;;;;;;5088414;28;20079;-79
2023/07/25 07:19:22;;;;;;;11.75;6.90;;;28.60;50.90;;;;;;5088669;28;20036;-80
2023/07/25 07:21:48;;;;;;;13.35;7.10;;;28.60;50.50;;;;;;5088534;28;20122;-80
2023/07/25 07:24:14;;;;;;;7.60;4.72;;;28.60;50.60;;;;;;5088588;28;20035;-76
2023/07/25 07:26:40;;;;;;;11.48;6.03;;;28.60;50.00;;;;;;5071470;28;20044;-75
2023/07/25 07:29:07;;;;;;;10.23;5.32;;;28.60;50.50;;;;;;5088300;28;20045;-77
2023/07/25 07:31:33;;;;;;;11.65;5.80;;;28.70;50.40;;;;;;5088419;28;20048;-75
2023/07/25 07:34:14;;;;;;;10.02;6.03;;;28.70;50.40;;;;;;5074816;28;20140;-76
2023/07/25 07:36:41;;;;;;;9.60;6.10;;;28.60;50.10;;;;;;5073558;28;20388;-76
2023/07/25 07:39:07;;;;;;;14.07;6.78;;;28.60;50.50;;;;;;5074618;28;20040;-76
2023/07/25 07:41:34;;;;;;;12.57;6.78;;;28.70;49.80;;;;;;5074411;28;20043;-76
2023/07/25 07:44:01;;;;;;;9.63;6.82;;;28.70;50.00;;;;;;5074476;28;20047;-83
2023/07/25 07:46:31;;;;;;;10.77;6.78;;;28.60;50.10;;;;;;5074780;28;20036;-78
2023/07/25 07:48:58;;;;;;;9.98;6.18;;;28.70;50.60;;;;;;5074205;28;20037;-79
2023/07/25 07:51:25;;;;;;;12.77;6.60;;;28.50;50.60;;;;;;5073180;28;20033;-78
2023/07/25 07:53:52;;;;;;;14.68;7.80;;;28.70;50.80;;;;;;5074007;28;20100;-74
2023/07/25 07:56:18;;;;;;;12.60;8.27;;;28.70;52.80;;;;;;5074086;28;20031;-75
2023/07/25 07:58:45;;;;;;;12.98;8.40;;;28.80;51.50;;;;;;5073776;28;20032;-75
2023/07/25 08:01:19;;;;;;;12.52;8.32;;;28.80;53.50;;;;;;5074152;28;20032;-75
2023/07/25 08:03:46;;;;;;;12.55;8.65;;;28.80;51.20;;;;;;5073951;28;20250;-75
2023/07/25 08:06:12;;;;;;;15.15;7.97;;;28.80;51.40;;;;;;5074028;28;20491;-76
2023/07/25 08:08:39;;;;;;;9.40;6.57;;;28.80;51.60;;;;;;5073692;28;20484;-76
2023/07/25 08:11:05;;;;;;;16.25;7.70;;;28.80;53.30;;;;;;5055637;28;20037;-76
2023/07/25 08:13:31;;;;;;;9.88;6.28;;;28.90;52.60;;;;;;5074276;28;20040;-76
2023/07/25 08:15:57;;;;;;;10.18;6.57;;;28.90;51.60;;;;;;5073860;28;20464;-75
2023/07/25 08:18:23;;;;;;;10.80;6.88;;;28.80;52.90;;;;;;5074938;28;20064;-76
2023/07/25 08:20:55;;;;;;;10.00;6.32;;;28.80;52.10;;;;;;5073785;28;20050;-76
2023/07/25 08:23:21;;;;;;;;;;;29.00;52.40;;;;;;5068385;28;20033;-74
2023/07/25 08:25:47;;;;;;;11.85;7.13;;;28.90;51.80;;;;;;5053502;28;20337;-74
2023/07/25 08:28:13;;;;;;;12.20;7.05;;;28.90;53.70;;;;;;5052581;28;20033;-74
2023/07/25 08:30:39;;;;;;;12.82;6.90;;;28.80;52.30;;;;;;5052263;28;20041;-74
2023/07/25 08:33:05;;;;;;;11.80;6.90;;;28.90;53.00;;;;;;5053496;28;20094;-74
2023/07/25 08:35:31;;;;;;;14.13;6.68;;;28.90;52.80;;;;;;5053945;28;20036;-77
2023/07/25 08:37:57;;;;;;;10.95;6.57;;;28.90;52.90;;;;;;5053700;28;20028;-73
2023/07/25 08:40:23;;;;;;;12.70;7.00;;;28.90;53.20;;;;;;5053274;28;20111;-73
2023/07/25 08:42:50;;;;;;;9.40;6.00;;;29.00;53.30;;;;;;5053115;28;20033;-73
2023/07/25 08:45:18;;;;;;;9.90;6.75;;;28.80;52.30;;;;;;5053667;28;20057;-74
2023/07/25 08:47:45;;;;;;;12.27;6.72;;;28.80;52.00;;;;;;5052645;28;20037;-74
2023/07/25 08:50:15;;;;;;;11.43;6.53;;;28.80;51.10;;;;;;5052015;28;20083;-75
2023/07/25 08:52:51;;;;;;;9.73;6.57;;;28.80;51.40;;;;;;5053384;28;20115;-77
2023/07/25 08:55:18;;;;;;;13.48;6.35;;;28.80;51.30;;;;;;5053628;28;20045;-77
2023/07/25 08:57:44;;;;;;;10.18;6.72;;;28.70;51.70;;;;;;5053155;28;20423;-76
2023/07/25 09:00:13;;;;;;;9.70;5.43;;;28.60;52.10;;;;;;5053275;28;20045;-75
2023/07/25 09:02:39;;;;;;;11.75;5.95;;;28.60;52.20;;;;;;5053150;28;20079;-75
2023/07/25 09:05:06;;;;;;;7.82;5.30;;;28.50;51.70;;;;;;5053039;28;20037;-75
2023/07/25 09:07:32;;;;;;;10.38;5.85;;;28.60;51.60;;;;;;5052683;28;20041;-76
2023/07/25 09:09:59;;;;;;;9.40;5.85;;;28.60;51.50;;;;;;5035103;28;20076;-74
2023/07/25 09:12:25;;;;;;;8.02;5.45;;;28.50;51.10;;;;;;5053036;28;20040;-76
2023/07/25 09:14:52;;;;;;;8.07;5.30;;;28.40;51.00;;;;;;5050274;28;20041;-77
2023/07/25 09:17:19;;;;;;;12.48;5.72;;;28.40;51.40;;;;;;5050346;28;20151;-75
2023/07/25 09:19:46;;;;;;;9.73;5.88;;;28.50;51.20;;;;;;5050390;28;20051;-75
2023/07/25 09:22:25;;;;;;;10.40;6.07;;;28.50;50.90;;;;;;5050424;28;20440;-75
2023/07/25 09:24:51;;;;;;;9.55;5.90;;;28.30;50.80;;;;;;5068546;28;20056;-75
2023/07/25 09:27:18;;;;;;;10.95;6.18;;;28.40;50.90;;;;;;5050063;28;20037;-76
2023/07/25 09:29:45;;;;;;;8.70;5.63;;;28.40;50.80;;;;;;5049985;28;20063;-76
2023/07/25 09:32:27;;;;;;;7.80;5.53;;;28.40;50.50;;;;;;5049755;28;20098;-75
2023/07/25 09:34:57;;;;;;;8.10;5.53;;;28.60;50.40;;;;;;5049703;28;20048;-75
2023/07/25 09:37:23;;;;;;;6.15;4.70;;;28.50;50.40;;;;;;5049607;28;20045;-77
2023/07/25 09:39:54;;;;;;;9.43;4.68;;;28.50;50.30;;;;;;5049443;28;20091;-77
2023/07/25 09:42:24;;;;;;;9.73;5.60;;;28.50;50.30;;;;;;4991976;28;20565;-76
2023/07/25 09:44:52;;;;;;;10.52;6.10;;;28.50;50.70;;;;;;4970244;28;20042;-76
2023/07/25 09:47:28;;;;;;;9.50;5.57;;;28.60;50.70;;;;;;5006997;28;20493;-82
2023/07/25 09:49:55;;;;;;;8.10;5.50;;;28.60;51.20;;;;;;4988959;28;20042;-77
2023/07/25 09:52:22;;;;;;;6.80;5.53;;;28.60;51.90;;;;;;4989212;28;20077;-76
2023/07/25 09:54:50;;;;;;;9.77;5.50;;;28.50;52.30;;;;;;5003742;28;20099;-75
2023/07/25 09:57:16;;;;;;;8.00;5.20;;;28.60;52.60;;;;;;5009417;28;20052;-77
2023/07/25 09:59:42;;;;;;;8.52;5.55;;;28.60;52.70;;;;;;5022986;28;20041;-75
2023/07/25 10:02:09;;;;;;;7.03;5.03;;;28.50;52.70;;;;;;5026859;28;20044;-76
2023/07/25 10:04:36;;;;;;;10.30;5.45;;;28.60;52.80;;;;;;5025102;28;20147;-78
2023/07/25 10:07:02;;;;;;;8.27;5.70;;;28.70;52.80;;;;;;4998093;28;20029;-76
2023/07/25 10:09:30;;;;;;;9.15;5.50;;;28.60;52.80;;;;;;4993561;28;20111;-76
2023/07/25 10:11:56;;;;;;;9.73;5.95;;;28.60;52.80;;;;;;5009878;28;20124;-81
2023/07/25 10:14:22;;;;;;;8.75;5.00;;;28.60;52.50;;;;;;5041230;28;20483;-73
2023/07/25 10:16:49;;;;;;;8.60;5.40;;;28.60;52.20;;;;;;5059947;28;20598;-73
2023/07/25 10:19:16;;;;;;;11.00;5.97;;;28.70;52.00;;;;;;5068536;28;20036;-73
2023/07/25 10:21:47;;;;;;;11.18;5.43;;;28.80;51.90;;;;;;5068909;28;20106;-74
2023/07/25 10:24:13;;;;;;;8.68;4.50;;;28.80;51.90;;;;;;5060898;28;20044;-74
2023/07/25 10:26:56;;;;;;;7.53;5.45;;;28.70;51.70;;;;;;5068923;28;20123;-73
2023/07/25 10:29:36;;;;;;;11.10;6.28;;;28.70;52.50;;;;;;5067274;28;20071;-76
2023/07/25 10:32:03;;;;;;;10.88;6.53;;;28.70;52.80;;;;;;5063598;28;20484;-77
2023/07/25 10:34:48;;;;;;;10.50;5.97;;;28.80;52.60;;;;;;5064574;28;20044;-76
2023/07/25 10:37:29;;;;;;;8.63;5.05;;;28.80;52.00;;;;;;5068777;28;20043;-73
2023/07/25 10:40:15;;;;;;;9.50;5.10;;;28.80;52.80;;;;;;5065287;28;20389;-75
2023/07/25 10:42:48;;;;;;;10.98;6.05;;;28.80;53.90;;;;;;5053949;28;20028;-75
2023/07/25 10:45:29;;;;;;;7.65;5.15;;;28.90;55.60;;;;;;5049397;28;20040;-75
2023/07/25 10:47:55;;;;;;;10.55;5.60;;;28.80;55.00;;;;;;5031169;28;20034;-74
2023/07/25 10:50:27;;;;;;;8.80;4.95;;;28.90;56.30;;;;;;5031200;28;20090;-74
2023/07/25 10:52:53;;;;;;;7.15;5.55;;;28.90;56.20;;;;;;5047001;28;20178;-75
2023/07/25 10:55:20;;;;;;;6.75;4.90;;;28.80;54.10;;;;;;5054356;28;20079;-75
2023/07/25 10:58:07;;;;;;;9.50;5.43;;;28.80;53.50;;;;;;5069483;28;20036;-76
2023/07/25 11:00:37;;;;;;;9.15;5.85;;;29.00;51.80;;;;;;5065130;28;20109;-76
2023/07/25 11:03:26;;;;;;;8.73;4.90;;;29.00;50.60;;;;;;5060308;28;20063;-75
2023/07/25 11:05:52;;;;;;;9.88;5.55;;;29.10;50.60;;;;;;5064514;28;20075;-76
2023/07/25 11:08:18;;;;;;;9.13;5.20;;;29.00;50.80;;;;;;5072887;28;20038;-78
2023/07/25 11:10:44;;;;;;;8.23;4.95;;;29.00;51.80;;;;;;5060188;28;20107;-75
2023/07/25 11:13:11;;;;;;;9.50;5.38;;;29.00;50.60;;;;;;5071071;28;20059;-75
2023/07/25 11:15:37;;;;;;;7.38;4.47;;;29.10;50.20;;;;;;5054424;28;20039;-75
2023/07/25 11:18:09;;;;;;;8.23;4.68;;;29.00;50.80;;;;;;5053279;28;20033;-75
2023/07/25 11:20:35;;;;;;;5.82;4.43;;;28.90;49.40;;;;;;5066495;28;20025;-76
2023/07/25 11:23:01;;;;;;;8.38;5.25;;;28.90;49.90;;;;;;5057440;28;20530;-76
2023/07/25 11:25:27;;;;;;;8.35;5.00;;;29.10;49.10;;;;;;5050955;28;20065;-76
2023/07/25 11:27:53;;;;;;;8.77;5.30;;;29.00;48.40;;;;;;5061441;28;20033;-75
2023/07/25 11:30:20;;;;;;;6.70;5.18;;;28.90;47.40;;;;;;5049999;28;20441;-75
2023/07/25 11:32:51;;;;;;;9.32;4.88;;;29.00;47.20;;;;;;5053235;28;20128;-76
2023/07/25 11:35:18;;;;;;;9.68;4.00;;;29.10;47.10;;;;;;5069241;28;20037;-75
2023/07/25 11:37:45;;;;;;;8.80;5.03;;;28.90;46.70;;;;;;5051511;28;20492;-75
2023/07/25 11:40:19;;;;;;;6.05;4.40;;;28.90;46.40;;;;;;5054377;28;20082;-76
2023/07/25 11:42:47;;;;;;;6.13;3.53;;;28.90;46.00;;;;;;5056909;28;20049;-75
2023/07/25 11:45:14;;;;;;;6.15;3.80;;;28.90;45.10;;;;;;5066635;28;20056;-76
2023/07/25 11:47:42;;;;;;;4.15;2.75;;;28.90;44.80;;;;;;5047955;28;20065;-76
2023/07/25 11:50:10;;;;;;;6.30;2.75;;;28.90;44.30;;;;;;5052823;28;20029;-77
2023/07/25 11:52:38;;;;;;;5.15;2.85;;;28.80;44.10;;;;;;5050164;28;20160;-77
2023/07/25 11:55:06;;;;;;;6.90;3.72;;;28.90;43.90;;;;;;5044482;28;20072;-75
2023/07/25 11:57:32;;;;;;;6.38;3.80;;;29.00;44.20;;;;;;5060899;28;20033;-75
2023/07/25 11:59:59;;;;;;;6.38;3.80;;;28.90;43.40;;;;;;5056982;28;20503;-75
2023/07/25 12:02:26;;;;;;;7.20;3.17;;;28.90;43.20;;;;;;5055415;28;20075;-76
2023/07/25 12:04:52;;;;;;;5.30;2.75;;;28.90;42.90;;;;;;5044955;28;20032;-76
2023/07/25 12:07:18;;;;;;;4.57;3.17;;;28.90;42.80;;;;;;5054155;28;20037;-76
2023/07/25 12:09:54;;;;;;;3.67;2.58;;;28.90;42.60;;;;;;5054025;28;20589;-76
2023/07/25 12:12:21;;;;;;;7.32;3.55;;;28.90;42.50;;;;;;5053861;28;20048;-75
2023/07/25 12:14:57;;;;;;;3.60;2.72;;;28.90;42.20;;;;;;5053983;28;20371;-75
2023/07/25 12:17:39;;;;;;;4.60;3.47;;;28.90;42.20;;;;;;5054354;28;20048;-76
2023/07/25 12:20:15;;;;;;;4.87;3.10;;;28.70;41.90;;;;;;5058207;28;20591;-76
2023/07/25 12:22:41;;;;;;;5.55;2.90;;;28.80;41.60;;;;;;5064258;28;20463;-75
2023/07/25 12:25:08;;;;;;;6.80;3.10;;;28.90;41.60;;;;;;5059084;28;20016;-75
2023/07/25 12:27:34;;;;;;;5.45;2.88;;;28.90;41.60;;;;;;5057024;28;20033;-75
2023/07/25 12:30:00;;;;;;;7.47;2.90;;;28.90;41.70;;;;;;5070685;28;20035;-75
2023/07/25 12:32:26;;;;;;;4.53;3.10;;;28.80;41.90;;;;;;5056646;28;20033;-75
2023/07/25 12:35:00;;;;;;;4.13;2.78;;;28.80;42.20;;;;;;5061994;28;20033;-75
2023/07/25 12:37:26;;;;;;;5.43;2.92;;;28.80;42.40;;;;;;5068006;28;20029;-75
2023/07/25 12:39:52;;;;;;;4.22;2.55;;;28.90;42.80;;;;;;5071253;28;20044;-74
2023/07/25 12:42:18;;;;;;;6.80;3.33;;;28.70;43.00;;;;;;5060715;28;20091;-75